createdAt,value
2022-11-19T00:02:00.524Z,3.35
2022-11-19T00:04:32.809Z,3.00
2022-11-19T00:07:04.989Z,2.80
2022-11-19T00:09:38.322Z,2.50
2022-11-19T00:12:29.616Z,3.00
2022-11-19T00:15:02.454Z,2.58
2022-11-19T00:17:34.324Z,3.03
2022-11-19T00:20:08.043Z,2.72
2022-11-19T00:22:43.542Z,2.65
2022-11-19T00:25:16.343Z,2.50
2022-11-19T00:27:48.912Z,2.85
2022-11-19T00:30:46.203Z,2.53
2022-11-19T00:33:13.726Z,2.60
2022-11-19T00:35:46.037Z,3.08
2022-11-19T00:38:19.110Z,2.70
2022-11-19T00:40:51.158Z,3.00
2022-11-19T00:43:42.192Z,2.75
2022-11-19T00:46:25.361Z,2.67
2022-11-19T00:48:59.861Z,3.05
2022-11-19T00:51:32.130Z,3.10
2022-11-19T00:54:04.025Z,4.80
2022-11-19T00:56:36.843Z,3.50
2022-11-19T00:59:09.595Z,2.85
2022-11-19T01:01:41.581Z,3.60
2022-11-19T01:04:14.601Z,4.03
2022-11-19T01:06:47.002Z,3.80
2022-11-19T01:09:20.924Z,2.90
2022-11-19T01:11:53.162Z,3.05
2022-11-19T01:14:25.425Z,3.22
2022-11-19T01:16:57.694Z,4.10
2022-11-19T01:19:29.563Z,2.78
2022-11-19T01:22:02.253Z,2.45
2022-11-19T01:24:34.111Z,2.97
2022-11-19T01:27:28.319Z,2.55
2022-11-19T01:30:00.191Z,2.53
2022-11-19T01:32:33.362Z,2.53
2022-11-19T01:35:05.998Z,2.70
2022-11-19T01:37:38.820Z,2.65
2022-11-19T01:40:12.370Z,2.85
2022-11-19T01:42:50.386Z,3.00
2022-11-19T01:45:44.071Z,2.47
2022-11-19T01:48:30.130Z,2.33
2022-11-19T01:51:10.292Z,2.65
2022-11-19T01:53:45.811Z,2.70
2022-11-19T01:56:21.715Z,2.42
2022-11-19T01:59:00.857Z,2.35
2022-11-19T02:01:55.581Z,3.07
2022-11-19T02:04:28.624Z,2.35
2022-11-19T02:07:02.733Z,2.97
2022-11-19T02:09:34.684Z,2.88
2022-11-19T02:12:24.904Z,3.00
2022-11-19T02:15:20.313Z,2.57
2022-11-19T02:18:22.577Z,2.50
2022-11-19T02:21:27.204Z,2.78
2022-11-19T02:24:32.278Z,2.50
2022-11-19T02:27:13.618Z,2.67
2022-11-19T02:30:09.378Z,2.13
2022-11-19T02:32:54.183Z,2.97
2022-11-19T02:35:39.496Z,2.30
2022-11-19T02:38:32.105Z,2.33
2022-11-19T02:41:36.523Z,2.50
2022-11-19T02:44:33.000Z,2.10
2022-11-19T02:47:14.292Z,2.03
2022-11-19T02:49:47.813Z,2.80
2022-11-19T02:52:20.443Z,2.58
2022-11-19T02:54:53.898Z,2.75
2022-11-19T02:57:25.848Z,2.50
2022-11-19T03:00:25.602Z,2.55
2022-11-19T03:03:34.537Z,2.20
2022-11-19T03:06:13.796Z,2.30
2022-11-19T03:08:46.761Z,2.42
2022-11-19T03:11:26.907Z,2.40
2022-11-19T03:14:33.256Z,2.10
2022-11-19T03:17:22.436Z,2.05
2022-11-19T03:20:09.989Z,1.90
2022-11-19T03:23:05.342Z,2.10
2022-11-19T03:26:18.703Z,2.10
2022-11-19T03:28:52.682Z,2.58
2022-11-19T03:31:26.958Z,2.20
2022-11-19T03:34:04.686Z,2.00
2022-11-19T03:36:40.893Z,2.85
2022-11-19T03:39:19.928Z,2.67
2022-11-19T03:41:54.585Z,2.40
2022-11-19T03:44:30.397Z,2.75
2022-11-19T03:47:13.529Z,3.03
2022-11-19T03:49:48.936Z,2.85
2022-11-19T03:52:22.958Z,3.07
2022-11-19T03:54:55.107Z,2.72
2022-11-19T03:57:28.275Z,2.60
2022-11-19T04:00:00.254Z,2.60
2022-11-19T04:02:33.004Z,2.50
2022-11-19T04:05:05.269Z,2.73
2022-11-19T04:07:38.467Z,2.90
2022-11-19T04:10:11.109Z,2.80
2022-11-19T04:12:44.231Z,2.78
2022-11-19T04:15:16.735Z,3.15
2022-11-19T04:17:49.417Z,2.53
2022-11-19T04:20:22.123Z,3.03
2022-11-19T04:22:54.814Z,2.70
2022-11-19T04:25:26.684Z,3.00
2022-11-19T04:27:59.377Z,2.97
2022-11-19T04:30:31.679Z,2.60
2022-11-19T04:33:03.572Z,3.00
2022-11-19T04:35:36.370Z,2.88
2022-11-19T04:38:08.456Z,2.50
2022-11-19T04:40:42.938Z,2.22
2022-11-19T04:43:15.015Z,2.40
2022-11-19T04:45:48.233Z,2.15
2022-11-19T04:48:20.509Z,2.38
2022-11-19T04:50:52.341Z,2.47
2022-11-19T04:53:25.126Z,2.72
2022-11-19T04:55:57.350Z,2.40
2022-11-19T04:58:30.014Z,2.50
2022-11-19T05:01:02.351Z,2.00
2022-11-19T05:03:35.461Z,2.10
2022-11-19T05:06:10.737Z,2.33
2022-11-19T05:08:43.839Z,2.33
2022-11-19T05:11:16.492Z,2.08
2022-11-19T05:13:48.333Z,1.90
2022-11-19T05:16:21.023Z,2.55
2022-11-19T05:18:52.864Z,2.63
2022-11-19T05:21:25.628Z,2.40
2022-11-19T05:23:58.333Z,2.75
2022-11-19T05:26:30.624Z,3.10
2022-11-19T05:29:04.410Z,2.67
2022-11-19T05:31:36.623Z,2.67
2022-11-19T05:34:09.788Z,2.90
2022-11-19T05:36:42.269Z,2.63
2022-11-19T05:39:21.424Z,2.00
2022-11-19T05:41:54.258Z,2.10
2022-11-19T05:44:26.920Z,2.13
2022-11-19T05:46:59.775Z,2.60
2022-11-19T05:49:32.477Z,2.13
2022-11-19T05:52:04.701Z,2.50
2022-11-19T05:54:37.433Z,2.30
2022-11-19T05:57:10.345Z,2.40
2022-11-19T05:59:44.156Z,2.77
2022-11-19T06:02:17.049Z,2.78
2022-11-19T06:04:49.601Z,2.70
2022-11-19T06:07:22.441Z,2.90
2022-11-19T06:09:54.765Z,3.35
2022-11-19T06:12:27.423Z,3.30
2022-11-19T06:15:00.655Z,3.58
2022-11-19T06:17:33.636Z,3.50
2022-11-19T06:20:09.283Z,3.33
2022-11-19T06:22:41.122Z,3.10
2022-11-19T06:25:14.160Z,3.30
2022-11-19T06:27:46.462Z,3.03
2022-11-19T06:30:18.412Z,3.13
2022-11-19T06:32:51.059Z,3.00
2022-11-19T06:35:22.909Z,3.50
2022-11-19T06:37:56.010Z,2.73
2022-11-19T06:40:27.876Z,3.03
2022-11-19T06:43:00.652Z,2.92
2022-11-19T06:45:32.547Z,2.90
2022-11-19T06:48:05.836Z,2.60
2022-11-19T06:50:38.116Z,2.80
2022-11-19T06:53:10.032Z,2.75
2022-11-19T06:55:42.772Z,2.60
2022-11-19T06:58:15.768Z,2.83
2022-11-19T07:00:47.723Z,2.95
2022-11-19T07:03:20.428Z,2.73
2022-11-19T07:05:59.743Z,3.03
2022-11-19T07:08:36.128Z,3.53
2022-11-19T07:11:25.740Z,3.50
2022-11-19T07:14:00.215Z,3.00
2022-11-19T07:16:35.644Z,3.30
2022-11-19T07:19:09.638Z,3.03
2022-11-19T07:21:41.490Z,3.15
2022-11-19T07:24:18.141Z,2.97
2022-11-19T07:26:50.005Z,2.50
2022-11-19T07:29:24.374Z,2.50
2022-11-19T07:31:59.073Z,2.53
2022-11-19T07:34:32.511Z,2.35
2022-11-19T07:37:04.381Z,2.42
2022-11-19T07:39:37.063Z,2.47
2022-11-19T07:42:27.804Z,2.90
2022-11-19T07:45:00.494Z,2.63
2022-11-19T07:47:34.833Z,2.45
2022-11-19T07:50:07.287Z,2.85
2022-11-19T07:52:40.155Z,2.75
2022-11-19T07:55:12.576Z,2.60
2022-11-19T07:57:44.427Z,2.50
2022-11-19T08:00:17.348Z,2.50
2022-11-19T08:02:50.492Z,2.50
2022-11-19T08:05:22.421Z,2.88
2022-11-19T08:07:55.485Z,3.03
2022-11-19T08:10:31.789Z,2.75
2022-11-19T08:13:04.770Z,2.92
2022-11-19T08:15:36.784Z,3.03
2022-11-19T08:18:14.255Z,2.67
2022-11-19T08:20:48.302Z,2.45
2022-11-19T08:23:21.472Z,2.65
2022-11-19T08:25:53.295Z,2.55
2022-11-19T08:28:29.421Z,2.70
2022-11-19T08:31:09.694Z,2.20
2022-11-19T08:33:41.959Z,2.20
2022-11-19T08:36:14.296Z,2.35
2022-11-19T08:38:46.143Z,2.67
2022-11-19T08:41:37.803Z,2.10
2022-11-19T08:44:09.731Z,2.70
2022-11-19T08:46:42.420Z,2.50
2022-11-19T08:49:15.112Z,2.63
2022-11-19T08:51:46.948Z,2.50
2022-11-19T08:54:19.985Z,2.20
2022-11-19T08:56:52.116Z,2.65
2022-11-19T08:59:24.978Z,2.55
2022-11-19T09:01:57.738Z,2.67
2022-11-19T09:04:29.610Z,2.50
2022-11-19T09:07:03.051Z,2.20
2022-11-19T09:09:34.974Z,2.00
2022-11-19T09:12:08.180Z,2.30
2022-11-19T09:14:40.453Z,2.35
2022-11-19T09:17:13.852Z,2.38
2022-11-19T09:19:46.869Z,2.50
2022-11-19T09:22:19.986Z,2.45
2022-11-19T09:24:52.289Z,2.50
2022-11-19T09:27:24.164Z,2.42
2022-11-19T09:29:56.969Z,2.38
2022-11-19T09:32:29.142Z,2.30
2022-11-19T09:35:02.089Z,2.70
2022-11-19T09:37:36.021Z,2.30
2022-11-19T09:40:10.796Z,2.35
2022-11-19T09:43:33.843Z,2.75
2022-11-19T09:46:29.775Z,2.40
2022-11-19T09:49:09.897Z,2.20
2022-11-19T09:51:47.120Z,2.30
2022-11-19T09:54:22.770Z,2.03
2022-11-19T09:57:00.495Z,2.55
2022-11-19T09:59:40.399Z,2.30
2022-11-19T10:02:21.812Z,2.17
2022-11-19T10:04:53.977Z,2.30
2022-11-19T10:07:56.852Z,2.53
2022-11-19T10:10:47.589Z,2.60
2022-11-19T10:13:59.725Z,2.70
2022-11-19T10:16:58.041Z,2.40
2022-11-19T10:20:06.966Z,2.50
2022-11-19T10:22:57.561Z,2.30
2022-11-19T10:25:39.912Z,2.55
2022-11-19T10:28:27.047Z,2.78
2022-11-19T10:31:33.977Z,3.28
2022-11-19T10:34:30.584Z,2.63
2022-11-19T10:37:10.156Z,2.67
2022-11-19T10:40:07.509Z,2.65
2022-11-19T10:42:45.339Z,2.67
2022-11-19T10:45:24.978Z,3.03
2022-11-19T10:48:18.111Z,3.05
2022-11-19T10:50:53.116Z,2.40
2022-11-19T10:53:38.311Z,2.33
2022-11-19T10:56:22.896Z,2.67
2022-11-19T10:59:13.549Z,2.42
2022-11-19T11:01:54.547Z,2.72
2022-11-19T11:04:30.058Z,2.55
2022-11-19T11:07:05.828Z,2.70
2022-11-19T11:09:43.431Z,2.50
2022-11-19T11:12:42.003Z,2.70
2022-11-19T11:15:25.826Z,2.40
2022-11-19T11:18:08.521Z,2.80
2022-11-19T11:20:47.884Z,2.83
2022-11-19T11:23:26.675Z,2.90
2022-11-19T11:26:09.901Z,2.53
2022-11-19T11:28:57.762Z,2.60
2022-11-19T11:31:40.046Z,2.88
2022-11-19T11:34:38.877Z,3.25
2022-11-19T11:37:13.627Z,2.60
2022-11-19T11:39:53.119Z,3.00
2022-11-19T11:42:28.642Z,3.00
2022-11-19T11:45:02.124Z,3.00
2022-11-19T11:47:39.645Z,3.20
2022-11-19T11:50:25.293Z,2.92
2022-11-19T11:53:00.335Z,2.90
2022-11-19T11:55:33.357Z,2.60
2022-11-19T11:58:28.399Z,3.30
2022-11-19T12:01:20.285Z,3.22
2022-11-19T12:03:56.154Z,4.30
2022-11-19T12:06:49.911Z,3.40
2022-11-19T12:09:38.073Z,3.33
2022-11-19T12:12:33.404Z,3.47
2022-11-19T12:15:50.662Z,3.45
2022-11-19T12:18:49.346Z,3.60
2022-11-19T12:21:53.923Z,3.30
2022-11-19T12:24:54.894Z,3.63
2022-11-19T12:27:49.966Z,3.90
2022-11-19T12:30:31.384Z,3.50
2022-11-19T12:33:12.483Z,3.38
2022-11-19T12:36:07.984Z,2.67
2022-11-19T12:39:14.632Z,3.20
2022-11-19T12:42:05.061Z,3.38
2022-11-19T12:44:59.133Z,3.42
2022-11-19T12:48:17.447Z,2.78
2022-11-19T12:51:08.513Z,3.72
2022-11-19T12:54:19.941Z,3.53
2022-11-19T12:57:41.032Z,2.70
2022-11-19T13:00:14.776Z,2.63
2022-11-19T13:02:59.316Z,2.28
2022-11-19T13:05:56.998Z,2.45
2022-11-19T13:08:40.600Z,1.65
2022-11-19T13:11:38.665Z,2.13
2022-11-19T13:14:28.156Z,3.25
2022-11-19T13:17:01.253Z,2.22
2022-11-19T13:19:37.589Z,2.00
2022-11-19T13:22:18.968Z,2.58
2022-11-19T13:25:40.572Z,2.30
2022-11-19T13:28:52.469Z,2.65
2022-11-19T13:31:39.284Z,2.38
2022-11-19T13:34:24.532Z,2.42
2022-11-19T13:37:02.201Z,2.27
2022-11-19T13:39:52.128Z,2.55
2022-11-19T13:42:43.484Z,2.92
2022-11-19T13:45:17.904Z,3.90
2022-11-19T13:48:01.158Z,2.30
2022-11-19T13:50:42.517Z,2.37
2022-11-19T13:53:18.027Z,3.00
2022-11-19T13:55:57.624Z,2.40
2022-11-19T13:58:38.270Z,2.42
2022-11-19T14:01:56.109Z,2.72
2022-11-19T14:05:08.630Z,2.63
2022-11-19T14:08:14.350Z,2.83
2022-11-19T14:11:23.456Z,2.70
2022-11-19T14:14:59.805Z,2.17
2022-11-19T14:18:07.497Z,2.90
2022-11-19T14:21:02.020Z,3.10
2022-11-19T14:24:07.607Z,3.25
2022-11-19T14:26:42.543Z,3.15
2022-11-19T14:29:27.473Z,2.63
2022-11-19T14:32:08.084Z,2.83
2022-11-19T14:35:21.583Z,2.20
2022-11-19T14:37:58.121Z,2.60
2022-11-19T14:40:33.455Z,3.03
2022-11-19T14:43:25.166Z,3.65
2022-11-19T14:46:03.396Z,3.50
2022-11-19T14:48:53.590Z,4.10
2022-11-19T14:51:34.634Z,4.47
2022-11-19T14:54:15.576Z,3.92
2022-11-19T14:57:07.648Z,3.30
2022-11-19T14:59:40.786Z,3.90
2022-11-19T15:02:38.625Z,3.37
2022-11-19T15:05:48.002Z,3.50
2022-11-19T15:08:21.105Z,3.30
2022-11-19T15:11:07.905Z,2.50
2022-11-19T15:13:46.473Z,2.50
2022-11-19T15:16:24.138Z,2.90
2022-11-19T15:20:11.293Z,4.55
2022-11-19T15:23:19.755Z,4.03
2022-11-19T15:25:57.487Z,3.10
2022-11-19T15:28:51.524Z,2.90
2022-11-19T15:32:06.659Z,2.90
2022-11-19T15:35:12.030Z,3.67
2022-11-19T15:37:53.810Z,3.33
2022-11-19T15:40:30.198Z,3.20
2022-11-19T15:43:30.927Z,4.63
2022-11-19T15:46:33.816Z,4.10
2022-11-19T15:49:23.734Z,3.70
2022-11-19T15:52:14.498Z,4.50
2022-11-19T15:54:50.279Z,5.10
2022-11-19T15:57:27.445Z,4.50
2022-11-19T16:00:02.044Z,4.30
2022-11-19T16:02:42.959Z,3.88
2022-11-19T16:05:28.603Z,4.22
2022-11-19T16:08:09.422Z,5.20
2022-11-19T16:10:46.964Z,4.78
2022-11-19T16:13:44.810Z,4.83
2022-11-19T16:16:46.727Z,4.60
2022-11-19T16:19:19.608Z,3.95
2022-11-19T16:22:01.460Z,3.33
2022-11-19T16:24:52.032Z,3.90
2022-11-19T16:27:25.849Z,3.95
2022-11-19T16:29:58.536Z,3.88
2022-11-19T16:32:30.927Z,3.75
2022-11-19T16:35:11.458Z,3.88
2022-11-19T16:37:43.784Z,4.30
2022-11-19T16:40:16.604Z,4.40
2022-11-19T16:42:57.276Z,5.15
2022-11-19T16:45:32.182Z,4.57
2022-11-19T16:48:04.363Z,5.22
2022-11-19T16:50:43.757Z,4.82
2022-11-19T16:53:46.889Z,4.25
2022-11-19T16:56:19.533Z,4.57
2022-11-19T16:59:00.239Z,4.15
2022-11-19T17:01:32.582Z,5.25
2022-11-19T17:04:13.559Z,5.57
2022-11-19T17:06:45.468Z,5.85
2022-11-19T17:09:44.841Z,5.43
2022-11-19T17:12:27.410Z,5.50
2022-11-19T17:15:08.605Z,4.82
2022-11-19T17:17:42.483Z,5.30
2022-11-19T17:20:30.402Z,4.27
2022-11-19T17:23:11.025Z,4.10
2022-11-19T17:26:16.556Z,4.38
2022-11-19T17:28:52.585Z,4.28
2022-11-19T17:31:27.430Z,3.95
2022-11-19T17:34:11.777Z,5.20
2022-11-19T17:36:45.347Z,4.45
2022-11-19T17:39:22.510Z,4.88
2022-11-19T17:42:21.735Z,5.70
2022-11-19T17:44:53.873Z,5.65
2022-11-19T17:47:26.621Z,5.70
2022-11-19T17:49:58.939Z,6.70
2022-11-19T17:52:32.666Z,6.50
2022-11-19T17:55:18.711Z,5.65
2022-11-19T17:57:51.414Z,5.32
2022-11-19T18:00:23.264Z,5.90
2022-11-19T18:03:01.719Z,5.53
2022-11-19T18:05:37.596Z,5.63
2022-11-19T18:08:10.267Z,5.32
2022-11-19T18:10:49.312Z,5.47
2022-11-19T18:13:26.073Z,5.53
2022-11-19T18:15:58.062Z,5.97
2022-11-19T18:18:31.122Z,5.75
2022-11-19T18:21:02.986Z,6.20
2022-11-19T18:23:35.676Z,6.72
2022-11-19T18:26:16.945Z,6.50
2022-11-19T18:28:49.398Z,6.25
2022-11-19T18:31:28.855Z,5.90
2022-11-19T18:34:00.754Z,6.47
2022-11-19T18:36:33.847Z,6.95
2022-11-19T18:39:05.689Z,8.27
2022-11-19T18:41:38.887Z,7.30
2022-11-19T18:44:33.209Z,7.80
2022-11-19T18:47:10.590Z,7.30
2022-11-19T18:49:43.484Z,7.40
2022-11-19T18:52:16.324Z,6.27
2022-11-19T18:54:48.269Z,7.00
2022-11-19T18:57:21.416Z,6.90
2022-11-19T18:59:53.728Z,6.25
2022-11-19T19:02:25.567Z,4.97
2022-11-19T19:04:58.710Z,5.63
2022-11-19T19:07:31.105Z,6.57
2022-11-19T19:10:04.745Z,6.18
2022-11-19T19:12:36.584Z,5.88
2022-11-19T19:15:09.869Z,7.00
2022-11-19T19:17:41.763Z,5.67
2022-11-19T19:20:14.506Z,6.10
2022-11-19T19:22:47.746Z,6.63
2022-11-19T19:25:19.613Z,6.20
2022-11-19T19:27:52.698Z,6.22
2022-11-19T19:30:25.487Z,5.65
2022-11-19T19:32:57.863Z,5.47
2022-11-19T19:35:30.236Z,5.40
2022-11-19T19:38:02.907Z,8.10
2022-11-19T19:40:35.194Z,8.38
2022-11-19T19:43:07.080Z,6.67
2022-11-19T19:45:39.726Z,6.50
2022-11-19T19:48:12.021Z,6.78
2022-11-19T19:50:51.384Z,6.72
2022-11-19T19:53:23.608Z,7.55
2022-11-19T19:56:05.187Z,5.13
2022-11-19T19:58:38.392Z,5.70
2022-11-19T20:01:23.020Z,5.00
2022-11-19T20:04:07.338Z,5.50
2022-11-19T20:06:45.828Z,7.00
2022-11-19T20:09:18.159Z,5.43
2022-11-19T20:11:50.807Z,5.75
2022-11-19T20:14:24.129Z,5.93
2022-11-19T20:16:56.019Z,6.35
2022-11-19T20:19:28.794Z,6.07
2022-11-19T20:22:00.663Z,5.70
2022-11-19T20:24:33.349Z,5.35
2022-11-19T20:27:05.190Z,5.90
2022-11-19T20:29:37.891Z,6.40
2022-11-19T20:32:10.267Z,6.22
2022-11-19T20:34:42.507Z,5.93
2022-11-19T20:37:15.169Z,6.20
2022-11-19T20:39:47.442Z,5.85
2022-11-19T20:42:38.199Z,5.38
2022-11-19T20:45:11.035Z,5.72
2022-11-19T20:47:42.908Z,6.60
2022-11-19T20:50:16.452Z,7.00
2022-11-19T20:52:48.309Z,6.93
2022-11-19T20:55:21.020Z,6.38
2022-11-19T20:57:53.632Z,6.85
2022-11-19T21:00:25.961Z,6.20
2022-11-19T21:02:58.736Z,6.78
2022-11-19T21:05:30.976Z,7.15
2022-11-19T21:08:03.799Z,7.25
2022-11-19T21:10:36.462Z,7.43
2022-11-19T21:13:08.791Z,7.90
2022-11-19T21:15:40.659Z,7.35
2022-11-19T21:18:12.990Z,6.60
2022-11-19T21:20:44.836Z,7.80
2022-11-19T21:23:19.696Z,8.30
2022-11-19T21:25:53.196Z,7.73
2022-11-19T21:28:25.041Z,7.60
2022-11-19T21:30:57.738Z,6.82
2022-11-19T21:33:30.078Z,7.90
2022-11-19T21:36:04.232Z,9.48
2022-11-19T21:38:36.977Z,7.27
2022-11-19T21:41:09.677Z,7.28
2022-11-19T21:43:41.942Z,7.90
2022-11-19T21:46:13.832Z,7.40
2022-11-19T21:48:46.562Z,6.53
2022-11-19T21:51:24.288Z,6.93
2022-11-19T21:53:58.481Z,6.60
2022-11-19T21:56:38.035Z,7.32
2022-11-19T21:59:10.516Z,6.32
2022-11-19T22:01:43.319Z,5.88
2022-11-19T22:04:15.715Z,4.43
2022-11-19T22:06:48.948Z,4.20
2022-11-19T22:09:22.993Z,4.28
2022-11-19T22:11:56.013Z,3.92
2022-11-19T22:14:27.927Z,4.63
2022-11-19T22:17:01.561Z,4.20
2022-11-19T22:19:34.478Z,3.80
2022-11-19T22:22:06.342Z,4.30
2022-11-19T22:24:39.437Z,4.30
2022-11-19T22:27:11.309Z,4.30
2022-11-19T22:29:44.437Z,4.40
2022-11-19T22:32:16.745Z,3.72
2022-11-19T22:34:48.829Z,4.50
2022-11-19T22:37:21.979Z,4.28
2022-11-19T22:39:54.220Z,4.18
2022-11-19T22:42:27.170Z,4.10
2022-11-19T22:44:59.025Z,4.65
2022-11-19T22:47:31.693Z,4.22
2022-11-19T22:50:04.260Z,4.00
2022-11-19T22:52:36.555Z,3.50
2022-11-19T22:55:09.352Z,4.07
2022-11-19T22:57:41.616Z,3.70
2022-11-19T23:00:23.513Z,4.22
2022-11-19T23:02:56.198Z,3.92
2022-11-19T23:05:31.907Z,4.15
2022-11-19T23:08:10.527Z,4.37
2022-11-19T23:10:42.842Z,3.92
2022-11-19T23:13:31.775Z,4.20
2022-11-19T23:16:12.042Z,5.00
2022-11-19T23:18:49.059Z,4.97
2022-11-19T23:21:27.362Z,3.93
2022-11-19T23:24:02.862Z,4.70
2022-11-19T23:26:35.979Z,4.20
2022-11-19T23:29:09.586Z,4.38
2022-11-19T23:31:41.927Z,4.28
2022-11-19T23:34:14.205Z,4.53
2022-11-19T23:36:46.077Z,3.70
2022-11-19T23:39:19.254Z,3.50
2022-11-19T23:41:51.373Z,3.20
2022-11-19T23:44:24.044Z,3.80
2022-11-19T23:46:56.277Z,3.50
2022-11-19T23:49:28.927Z,3.40
2022-11-19T23:52:00.852Z,3.25
2022-11-19T23:54:33.617Z,3.45
2022-11-19T23:57:05.899Z,3.10
2022-11-19T23:59:38.179Z,3.37
